sensor_id;sensor_type;location;lat;lon;timestamp;P1;durP1;ratioP1;P2;durP2;ratioP2
489;SDS011;231;48.120;11.576;2023-07-13T00:02:23;6.63;;;6.23;;
489;SDS011;231;48.120;11.576;2023-07-13T00:04:52;7.30;;;6.90;;
489;SDS011;231;48.120;11.576;2023-07-13T00:07:19;7.03;;;6.63;;
489;SDS011;231;48.120;11.576;2023-07-13T00:09:46;6.80;;;6.40;;
489;SDS011;231;48.120;11.576;2023-07-13T00:12:25;7.33;;;6.93;;
489;SDS011;231;48.120;11.576;2023-07-13T00:14:54;7.40;;;7.00;;
489;SDS011;231;48.120;11.576;2023-07-13T00:17:22;7.23;;;6.03;;
489;SDS011;231;48.120;11.576;2023-07-13T00:19:49;7.17;;;6.77;;
489;SDS011;231;48.120;11.576;2023-07-13T00:22:17;6.30;;;5.80;;
489;SDS011;231;48.120;11.576;2023-07-13T00:24:45;7.43;;;6.80;;
489;SDS011;231;48.120;11.576;2023-07-13T00:27:14;4.23;;;3.97;;
489;SDS011;231;48.120;11.576;2023-07-13T00:29:45;6.67;;;6.30;;
489;SDS011;231;48.120;11.576;2023-07-13T00:32:16;7.30;;;6.30;;
489;SDS011;231;48.120;11.576;2023-07-13T00:34:44;7.87;;;7.40;;
489;SDS011;231;48.120;11.576;2023-07-13T00:37:11;6.77;;;6.30;;
489;SDS011;231;48.120;11.576;2023-07-13T00:39:39;7.20;;;6.37;;
489;SDS011;231;48.120;11.576;2023-07-13T00:42:06;6.93;;;6.37;;
489;SDS011;231;48.120;11.576;2023-07-13T00:44:34;6.37;;;5.83;;
489;SDS011;231;48.120;11.576;2023-07-13T00:47:02;6.80;;;6.40;;
489;SDS011;231;48.120;11.576;2023-07-13T00:49:29;5.80;;;5.50;;
489;SDS011;231;48.120;11.576;2023-07-13T00:51:58;6.10;;;5.80;;
489;SDS011;231;48.120;11.576;2023-07-13T00:54:29;7.60;;;7.20;;
489;SDS011;231;48.120;11.576;2023-07-13T00:56:59;6.70;;;6.30;;
489;SDS011;231;48.120;11.576;2023-07-13T00:59:28;6.67;;;6.17;;
489;SDS011;231;48.120;11.576;2023-07-13T01:01:56;6.97;;;6.57;;
489;SDS011;231;48.120;11.576;2023-07-13T01:04:25;7.73;;;7.33;;
489;SDS011;231;48.120;11.576;2023-07-13T01:06:52;6.90;;;6.50;;
489;SDS011;231;48.120;11.576;2023-07-13T01:09:20;6.97;;;6.47;;
489;SDS011;231;48.120;11.576;2023-07-13T01:11:47;6.37;;;6.00;;
489;SDS011;231;48.120;11.576;2023-07-13T01:14:14;6.73;;;6.30;;
489;SDS011;231;48.120;11.576;2023-07-13T01:16:45;5.60;;;5.30;;
489;SDS011;231;48.120;11.576;2023-07-13T01:19:20;5.53;;;5.23;;
489;SDS011;231;48.120;11.576;2023-07-13T01:22:04;6.10;;;5.80;;
489;SDS011;231;48.120;11.576;2023-07-13T01:24:33;6.40;;;5.57;;
489;SDS011;231;48.120;11.576;2023-07-13T01:27:01;6.57;;;4.80;;
489;SDS011;231;48.120;11.576;2023-07-13T01:32:10;7.63;;;6.30;;
489;SDS011;231;48.120;11.576;2023-07-13T01:34:40;6.50;;;6.10;;
489;SDS011;231;48.120;11.576;2023-07-13T01:37:10;5.43;;;5.13;;
489;SDS011;231;48.120;11.576;2023-07-13T01:39:39;5.40;;;5.10;;
489;SDS011;231;48.120;11.576;2023-07-13T01:42:06;5.90;;;5.60;;
489;SDS011;231;48.120;11.576;2023-07-13T01:44:33;7.90;;;5.93;;
489;SDS011;231;48.120;11.576;2023-07-13T01:47:01;5.90;;;5.60;;
489;SDS011;231;48.120;11.576;2023-07-13T01:49:28;6.60;;;6.20;;
489;SDS011;231;48.120;11.576;2023-07-13T01:51:55;5.37;;;5.07;;
489;SDS011;231;48.120;11.576;2023-07-13T01:54:23;6.70;;;6.30;;
489;SDS011;231;48.120;11.576;2023-07-13T01:56:51;5.77;;;5.47;;
489;SDS011;231;48.120;11.576;2023-07-13T01:59:17;5.60;;;5.17;;
489;SDS011;231;48.120;11.576;2023-07-13T02:01:44;7.10;;;6.40;;
489;SDS011;231;48.120;11.576;2023-07-13T02:04:11;6.07;;;5.77;;
489;SDS011;231;48.120;11.576;2023-07-13T02:06:38;8.20;;;7.30;;
489;SDS011;231;48.120;11.576;2023-07-13T02:09:05;7.57;;;7.17;;
489;SDS011;231;48.120;11.576;2023-07-13T02:11:33;5.57;;;5.27;;
489;SDS011;231;48.120;11.576;2023-07-13T02:14:00;5.97;;;5.67;;
489;SDS011;231;48.120;11.576;2023-07-13T02:16:28;5.83;;;5.53;;
489;SDS011;231;48.120;11.576;2023-07-13T02:18:55;9.00;;;7.10;;
489;SDS011;231;48.120;11.576;2023-07-13T02:21:22;6.20;;;5.87;;
489;SDS011;231;48.120;11.576;2023-07-13T02:23:50;6.53;;;5.90;;
489;SDS011;231;48.120;11.576;2023-07-13T02:26:17;5.70;;;5.40;;
489;SDS011;231;48.120;11.576;2023-07-13T02:28:45;5.40;;;5.10;;
489;SDS011;231;48.120;11.576;2023-07-13T02:31:13;5.90;;;5.60;;
489;SDS011;231;48.120;11.576;2023-07-13T02:33:42;6.47;;;6.07;;
489;SDS011;231;48.120;11.576;2023-07-13T02:36:09;7.63;;;6.20;;
489;SDS011;231;48.120;11.576;2023-07-13T02:38:36;6.50;;;6.10;;
489;SDS011;231;48.120;11.576;2023-07-13T02:41:03;7.23;;;6.83;;
489;SDS011;231;48.120;11.576;2023-07-13T02:43:31;7.97;;;7.17;;
489;SDS011;231;48.120;11.576;2023-07-13T02:45:59;6.70;;;6.30;;
489;SDS011;231;48.120;11.576;2023-07-13T02:48:32;6.67;;;6.27;;
489;SDS011;231;48.120;11.576;2023-07-13T02:50:59;7.10;;;6.70;;
489;SDS011;231;48.120;11.576;2023-07-13T02:53:26;12.43;;;5.70;;
489;SDS011;231;48.120;11.576;2023-07-13T02:55:53;8.70;;;7.60;;
489;SDS011;231;48.120;11.576;2023-07-13T02:58:19;7.10;;;6.70;;
489;SDS011;231;48.120;11.576;2023-07-13T03:00:47;7.30;;;6.90;;
489;SDS011;231;48.120;11.576;2023-07-13T03:03:16;8.77;;;8.00;;
489;SDS011;231;48.120;11.576;2023-07-13T03:05:43;8.80;;;8.30;;
489;SDS011;231;48.120;11.576;2023-07-13T03:08:15;14.53;;;8.80;;
489;SDS011;231;48.120;11.576;2023-07-13T03:10:43;17.40;;;10.80;;
489;SDS011;231;48.120;11.576;2023-07-13T03:13:09;9.30;;;8.80;;
489;SDS011;231;48.120;11.576;2023-07-13T03:15:36;10.83;;;9.43;;
489;SDS011;231;48.120;11.576;2023-07-13T03:18:03;8.17;;;7.03;;
489;SDS011;231;48.120;11.576;2023-07-13T03:20:33;7.50;;;7.10;;
489;SDS011;231;48.120;11.576;2023-07-13T03:23:00;16.33;;;7.20;;
489;SDS011;231;48.120;11.576;2023-07-13T03:25:27;9.13;;;7.50;;
489;SDS011;231;48.120;11.576;2023-07-13T03:27:54;7.10;;;6.23;;
489;SDS011;231;48.120;11.576;2023-07-13T03:30:21;8.40;;;6.90;;
489;SDS011;231;48.120;11.576;2023-07-13T03:32:48;11.30;;;8.07;;
489;SDS011;231;48.120;11.576;2023-07-13T03:35:15;10.43;;;6.77;;
489;SDS011;231;48.120;11.576;2023-07-13T03:37:44;7.43;;;6.60;;
489;SDS011;231;48.120;11.576;2023-07-13T03:40:12;9.20;;;7.43;;
489;SDS011;231;48.120;11.576;2023-07-13T03:42:39;8.33;;;7.90;;
489;SDS011;231;48.120;11.576;2023-07-13T03:45:06;6.60;;;6.20;;
489;SDS011;231;48.120;11.576;2023-07-13T03:47:34;8.10;;;7.70;;
489;SDS011;231;48.120;11.576;2023-07-13T03:50:01;7.60;;;7.20;;
489;SDS011;231;48.120;11.576;2023-07-13T03:52:28;9.50;;;8.50;;
489;SDS011;231;48.120;11.576;2023-07-13T03:54:56;8.13;;;7.73;;
489;SDS011;231;48.120;11.576;2023-07-13T03:57:23;9.80;;;8.40;;
489;SDS011;231;48.120;11.576;2023-07-13T03:59:50;12.90;;;9.13;;
489;SDS011;231;48.120;11.576;2023-07-13T04:02:17;9.07;;;8.57;;
489;SDS011;231;48.120;11.576;2023-07-13T04:04:44;12.60;;;7.90;;
489;SDS011;231;48.120;11.576;2023-07-13T04:07:11;13.30;;;8.47;;
489;SDS011;231;48.120;11.576;2023-07-13T04:09:40;11.03;;;8.03;;
489;SDS011;231;48.120;11.576;2023-07-13T04:59:42;8.20;;;7.80;;
489;SDS011;231;48.120;11.576;2023-07-13T05:02:37;8.83;;;8.33;;
489;SDS011;231;48.120;11.576;2023-07-13T05:05:14;8.00;;;7.60;;
489;SDS011;231;48.120;11.576;2023-07-13T05:07:43;10.80;;;7.73;;
489;SDS011;231;48.120;11.576;2023-07-13T05:10:15;8.97;;;8.47;;
489;SDS011;231;48.120;11.576;2023-07-13T05:12:56;7.40;;;7.00;;
489;SDS011;231;48.120;11.576;2023-07-13T05:15:33;7.63;;;7.23;;
489;SDS011;231;48.120;11.576;2023-07-13T05:18:54;8.10;;;6.57;;
489;SDS011;231;48.120;11.576;2023-07-13T05:59:53;8.43;;;7.97;;
489;SDS011;231;48.120;11.576;2023-07-13T06:02:37;8.80;;;7.73;;
489;SDS011;231;48.120;11.576;2023-07-13T06:06:51;8.00;;;7.60;;
489;SDS011;231;48.120;11.576;2023-07-13T06:24:05;7.80;;;6.93;;
489;SDS011;231;48.120;11.576;2023-07-13T06:26:31;11.13;;;6.13;;
489;SDS011;231;48.120;11.576;2023-07-13T06:28:58;6.43;;;6.07;;
489;SDS011;231;48.120;11.576;2023-07-13T06:31:25;6.60;;;5.30;;
489;SDS011;231;48.120;11.576;2023-07-13T06:33:52;5.10;;;4.80;;
489;SDS011;231;48.120;11.576;2023-07-13T06:36:19;5.37;;;5.07;;
489;SDS011;231;48.120;11.576;2023-07-13T06:38:46;7.57;;;5.33;;
489;SDS011;231;48.120;11.576;2023-07-13T06:41:14;8.20;;;4.70;;
489;SDS011;231;48.120;11.576;2023-07-13T06:43:41;5.13;;;4.40;;
489;SDS011;231;48.120;11.576;2023-07-13T06:46:08;4.17;;;3.93;;
489;SDS011;231;48.120;11.576;2023-07-13T06:48:35;3.57;;;3.27;;
489;SDS011;231;48.120;11.576;2023-07-13T06:51:02;4.47;;;3.40;;
489;SDS011;231;48.120;11.576;2023-07-13T06:53:29;4.93;;;3.67;;
489;SDS011;231;48.120;11.576;2023-07-13T06:55:56;6.57;;;3.43;;
489;SDS011;231;48.120;11.576;2023-07-13T06:58:24;3.83;;;3.63;;
489;SDS011;231;48.120;11.576;2023-07-13T07:00:52;4.53;;;3.50;;
489;SDS011;231;48.120;11.576;2023-07-13T07:03:19;4.33;;;4.03;;
489;SDS011;231;48.120;11.576;2023-07-13T07:05:46;3.53;;;3.43;;
489;SDS011;231;48.120;11.576;2023-07-13T07:08:13;4.87;;;4.50;;
489;SDS011;231;48.120;11.576;2023-07-13T07:10:40;3.43;;;2.73;;
489;SDS011;231;48.120;11.576;2023-07-13T07:13:18;3.90;;;3.70;;
489;SDS011;231;48.120;11.576;2023-07-13T07:15:46;6.57;;;4.93;;
489;SDS011;231;48.120;11.576;2023-07-13T07:18:13;7.13;;;3.07;;
489;SDS011;231;48.120;11.576;2023-07-13T07:20:40;5.00;;;3.57;;
489;SDS011;231;48.120;11.576;2023-07-13T07:23:07;4.40;;;2.50;;
489;SDS011;231;48.120;11.576;2023-07-13T07:25:34;3.43;;;2.60;;
489;SDS011;231;48.120;11.576;2023-07-13T07:28:07;3.37;;;2.80;;
489;SDS011;231;48.120;11.576;2023-07-13T07:30:34;3.60;;;3.10;;
489;SDS011;231;48.120;11.576;2023-07-13T07:33:02;4.50;;;3.30;;
489;SDS011;231;48.120;11.576;2023-07-13T07:35:29;4.10;;;3.40;;
489;SDS011;231;48.120;11.576;2023-07-13T07:37:56;5.33;;;4.00;;
489;SDS011;231;48.120;11.576;2023-07-13T07:40:23;4.10;;;3.90;;
489;SDS011;231;48.120;11.576;2023-07-13T07:42:50;4.00;;;2.87;;
489;SDS011;231;48.120;11.576;2023-07-13T07:45:18;4.17;;;3.93;;
489;SDS011;231;48.120;11.576;2023-07-13T07:47:54;3.90;;;3.70;;
489;SDS011;231;48.120;11.576;2023-07-13T07:53:47;3.93;;;2.97;;
489;SDS011;231;48.120;11.576;2023-07-13T07:56:14;3.10;;;2.87;;
489;SDS011;231;48.120;11.576;2023-07-13T07:58:42;6.67;;;4.37;;
489;SDS011;231;48.120;11.576;2023-07-13T08:01:09;2.90;;;2.70;;
489;SDS011;231;48.120;11.576;2023-07-13T08:03:36;6.13;;;3.23;;
489;SDS011;231;48.120;11.576;2023-07-13T08:06:03;3.13;;;2.83;;
489;SDS011;231;48.120;11.576;2023-07-13T08:08:34;3.30;;;3.10;;
489;SDS011;231;48.120;11.576;2023-07-13T08:11:03;3.60;;;3.40;;
489;SDS011;231;48.120;11.576;2023-07-13T08:13:32;3.00;;;2.80;;
489;SDS011;231;48.120;11.576;2023-07-13T08:15:59;4.87;;;3.73;;
489;SDS011;231;48.120;11.576;2023-07-13T08:18:26;5.53;;;3.30;;
489;SDS011;231;48.120;11.576;2023-07-13T08:20:53;3.27;;;3.07;;
489;SDS011;231;48.120;11.576;2023-07-13T08:23:21;5.43;;;2.60;;
489;SDS011;231;48.120;11.576;2023-07-13T08:25:50;4.33;;;3.07;;
489;SDS011;231;48.120;11.576;2023-07-13T08:28:19;3.53;;;2.90;;
489;SDS011;231;48.120;11.576;2023-07-13T08:30:46;3.83;;;3.13;;
489;SDS011;231;48.120;11.576;2023-07-13T08:33:14;4.90;;;2.80;;
489;SDS011;231;48.120;11.576;2023-07-13T08:35:40;3.53;;;3.33;;
489;SDS011;231;48.120;11.576;2023-07-13T08:38:07;6.80;;;3.40;;
489;SDS011;231;48.120;11.576;2023-07-13T08:40:34;3.40;;;3.20;;
489;SDS011;231;48.120;11.576;2023-07-13T08:43:01;3.40;;;3.20;;
489;SDS011;231;48.120;11.576;2023-07-13T08:45:32;3.23;;;3.00;;
489;SDS011;231;48.120;11.576;2023-07-13T08:48:05;3.00;;;2.83;;
489;SDS011;231;48.120;11.576;2023-07-13T08:50:38;4.40;;;4.10;;
489;SDS011;231;48.120;11.576;2023-07-13T08:53:11;5.13;;;3.80;;
489;SDS011;231;48.120;11.576;2023-07-13T08:55:40;4.47;;;3.93;;
489;SDS011;231;48.120;11.576;2023-07-13T08:58:09;3.93;;;3.63;;
489;SDS011;231;48.120;11.576;2023-07-13T09:00:41;5.20;;;4.13;;
489;SDS011;231;48.120;11.576;2023-07-13T09:03:22;4.13;;;3.63;;
489;SDS011;231;48.120;11.576;2023-07-13T09:06:02;4.60;;;3.83;;
489;SDS011;231;48.120;11.576;2023-07-13T09:34:00;3.10;;;2.90;;
489;SDS011;231;48.120;11.576;2023-07-13T09:43:01;5.53;;;2.97;;
489;SDS011;231;48.120;11.576;2023-07-13T09:52:52;3.40;;;3.20;;
489;SDS011;231;48.120;11.576;2023-07-13T09:55:26;4.53;;;3.07;;
489;SDS011;231;48.120;11.576;2023-07-13T09:57:55;4.13;;;2.77;;
489;SDS011;231;48.120;11.576;2023-07-13T10:00:24;8.33;;;2.87;;
489;SDS011;231;48.120;11.576;2023-07-13T10:40:36;2.43;;;2.27;;
489;SDS011;231;48.120;11.576;2023-07-13T10:43:27;3.00;;;2.00;;
489;SDS011;231;48.120;11.576;2023-07-13T10:46:19;1.60;;;1.50;;
489;SDS011;231;48.120;11.576;2023-07-13T10:48:53;2.70;;;1.83;;
489;SDS011;231;48.120;11.576;2023-07-13T10:51:23;1.67;;;1.60;;
489;SDS011;231;48.120;11.576;2023-07-13T10:59:46;2.50;;;1.67;;
489;SDS011;231;48.120;11.576;2023-07-13T11:02:27;3.00;;;1.70;;
489;SDS011;231;48.120;11.576;2023-07-13T11:04:56;1.60;;;1.50;;
489;SDS011;231;48.120;11.576;2023-07-13T11:11:38;1.73;;;1.70;;
489;SDS011;231;48.120;11.576;2023-07-13T11:15:02;2.50;;;1.83;;
489;SDS011;231;48.120;11.576;2023-07-13T13:56:46;2.67;;;1.90;;
489;SDS011;231;48.120;11.576;2023-07-13T13:59:17;2.10;;;1.97;;
489;SDS011;231;48.120;11.576;2023-07-13T14:05:24;1.63;;;1.53;;
489;SDS011;231;48.120;11.576;2023-07-13T14:07:55;4.00;;;2.17;;
489;SDS011;231;48.120;11.576;2023-07-13T14:10:22;4.67;;;1.80;;
489;SDS011;231;48.120;11.576;2023-07-13T14:12:52;1.83;;;1.73;;
489;SDS011;231;48.120;11.576;2023-07-13T14:15:29;1.87;;;1.83;;
489;SDS011;231;48.120;11.576;2023-07-13T14:18:04;2.70;;;2.50;;
489;SDS011;231;48.120;11.576;2023-07-13T14:20:37;2.63;;;2.43;;
489;SDS011;231;48.120;11.576;2023-07-13T14:23:13;2.90;;;2.13;;
489;SDS011;231;48.120;11.576;2023-07-13T14:26:10;1.97;;;1.77;;
489;SDS011;231;48.120;11.576;2023-07-13T14:28:50;2.10;;;1.83;;
489;SDS011;231;48.120;11.576;2023-07-13T14:31:20;3.30;;;1.83;;
489;SDS011;231;48.120;11.576;2023-07-13T14:33:49;1.90;;;1.83;;
489;SDS011;231;48.120;11.576;2023-07-13T14:36:22;4.30;;;2.03;;
489;SDS011;231;48.120;11.576;2023-07-13T14:38:56;2.30;;;2.10;;
489;SDS011;231;48.120;11.576;2023-07-13T14:41:24;3.70;;;1.70;;
489;SDS011;231;48.120;11.576;2023-07-13T14:43:53;2.50;;;1.67;;
489;SDS011;231;48.120;11.576;2023-07-13T14:46:26;2.40;;;1.93;;
489;SDS011;231;48.120;11.576;2023-07-13T14:48:59;1.93;;;1.73;;
489;SDS011;231;48.120;11.576;2023-07-13T14:51:28;2.60;;;2.07;;
489;SDS011;231;48.120;11.576;2023-07-13T14:53:56;4.07;;;2.23;;
489;SDS011;231;48.120;11.576;2023-07-13T14:56:24;2.33;;;2.07;;
489;SDS011;231;48.120;11.576;2023-07-13T15:05:39;1.70;;;1.60;;
489;SDS011;231;48.120;11.576;2023-07-13T15:08:07;1.93;;;1.83;;
489;SDS011;231;48.120;11.576;2023-07-13T15:11:34;1.60;;;1.50;;
489;SDS011;231;48.120;11.576;2023-07-13T15:14:02;2.47;;;2.30;;
489;SDS011;231;48.120;11.576;2023-07-13T15:16:29;2.20;;;1.97;;
489;SDS011;231;48.120;11.576;2023-07-13T15:18:56;2.20;;;2.03;;
489;SDS011;231;48.120;11.576;2023-07-13T15:21:26;2.00;;;1.90;;
489;SDS011;231;48.120;11.576;2023-07-13T15:23:59;2.43;;;1.77;;
489;SDS011;231;48.120;11.576;2023-07-13T15:26:27;3.30;;;2.23;;
489;SDS011;231;48.120;11.576;2023-07-13T15:28:55;3.30;;;1.63;;
489;SDS011;231;48.120;11.576;2023-07-13T15:31:23;1.63;;;1.53;;
489;SDS011;231;48.120;11.576;2023-07-13T15:33:53;2.37;;;2.17;;
489;SDS011;231;48.120;11.576;2023-07-13T15:36:23;3.23;;;2.43;;
489;SDS011;231;48.120;11.576;2023-07-13T15:38:54;4.77;;;2.40;;
489;SDS011;231;48.120;11.576;2023-07-13T15:41:23;3.10;;;2.20;;
489;SDS011;231;48.120;11.576;2023-07-13T15:43:57;1.77;;;1.67;;
489;SDS011;231;48.120;11.576;2023-07-13T15:46:26;3.47;;;2.33;;
489;SDS011;231;48.120;11.576;2023-07-13T15:49:04;2.17;;;1.93;;
489;SDS011;231;48.120;11.576;2023-07-13T15:51:38;2.93;;;2.30;;
489;SDS011;231;48.120;11.576;2023-07-13T15:54:18;3.20;;;2.10;;
489;SDS011;231;48.120;11.576;2023-07-13T16:06:40;3.17;;;1.80;;
489;SDS011;231;48.120;11.576;2023-07-13T16:18:44;2.00;;;1.90;;
489;SDS011;231;48.120;11.576;2023-07-13T16:21:16;2.37;;;2.03;;
489;SDS011;231;48.120;11.576;2023-07-13T16:23:44;2.30;;;2.10;;
489;SDS011;231;48.120;11.576;2023-07-13T16:26:29;2.17;;;2.00;;
489;SDS011;231;48.120;11.576;2023-07-13T16:29:30;2.73;;;2.40;;
489;SDS011;231;48.120;11.576;2023-07-13T16:32:10;2.63;;;2.43;;
489;SDS011;231;48.120;11.576;2023-07-13T16:34:43;2.33;;;2.03;;
489;SDS011;231;48.120;11.576;2023-07-13T16:37:12;2.50;;;2.17;;
489;SDS011;231;48.120;11.576;2023-07-13T16:39:44;4.90;;;2.20;;
489;SDS011;231;48.120;11.576;2023-07-13T16:42:14;2.63;;;2.40;;
489;SDS011;231;48.120;11.576;2023-07-13T16:44:42;3.43;;;2.30;;
489;SDS011;231;48.120;11.576;2023-07-13T16:47:11;2.83;;;2.50;;
489;SDS011;231;48.120;11.576;2023-07-13T16:49:40;3.37;;;2.47;;
489;SDS011;231;48.120;11.576;2023-07-13T16:52:08;2.33;;;2.03;;
489;SDS011;231;48.120;11.576;2023-07-13T16:54:43;2.73;;;2.53;;
489;SDS011;231;48.120;11.576;2023-07-13T16:57:17;2.67;;;2.47;;
489;SDS011;231;48.120;11.576;2023-07-13T16:59:51;3.67;;;2.43;;
489;SDS011;231;48.120;11.576;2023-07-13T17:02:28;2.90;;;2.70;;
489;SDS011;231;48.120;11.576;2023-07-13T17:04:59;3.73;;;2.50;;
489;SDS011;231;48.120;11.576;2023-07-13T17:07:27;3.27;;;3.07;;
489;SDS011;231;48.120;11.576;2023-07-13T17:09:56;3.10;;;2.17;;
489;SDS011;231;48.120;11.576;2023-07-13T17:12:23;2.90;;;2.67;;
489;SDS011;231;48.120;11.576;2023-07-13T17:14:52;3.03;;;2.53;;
489;SDS011;231;48.120;11.576;2023-07-13T17:17:23;3.67;;;2.63;;
489;SDS011;231;48.120;11.576;2023-07-13T17:19:54;3.67;;;2.63;;
489;SDS011;231;48.120;11.576;2023-07-13T17:22:24;2.70;;;2.50;;
489;SDS011;231;48.120;11.576;2023-07-13T17:24:53;2.80;;;2.60;;
489;SDS011;231;48.120;11.576;2023-07-13T17:27:22;4.60;;;3.50;;
489;SDS011;231;48.120;11.576;2023-07-13T17:29:52;2.73;;;2.53;;
489;SDS011;231;48.120;11.576;2023-07-13T17:32:20;2.50;;;2.00;;
489;SDS011;231;48.120;11.576;2023-07-13T17:34:47;2.73;;;2.53;;
489;SDS011;231;48.120;11.576;2023-07-13T17:37:14;6.40;;;3.50;;
489;SDS011;231;48.120;11.576;2023-07-13T17:39:43;3.47;;;3.33;;
489;SDS011;231;48.120;11.576;2023-07-13T17:42:11;7.60;;;3.57;;
489;SDS011;231;48.120;11.576;2023-07-13T17:44:39;4.67;;;2.77;;
489;SDS011;231;48.120;11.576;2023-07-13T17:47:11;2.90;;;2.40;;
489;SDS011;231;48.120;11.576;2023-07-13T17:49:49;4.33;;;3.00;;
489;SDS011;231;48.120;11.576;2023-07-13T17:52:20;2.70;;;2.50;;
489;SDS011;231;48.120;11.576;2023-07-13T17:54:49;2.70;;;2.50;;
489;SDS011;231;48.120;11.576;2023-07-13T17:57:17;2.80;;;2.60;;
489;SDS011;231;48.120;11.576;2023-07-13T17:59:44;4.03;;;2.93;;
489;SDS011;231;48.120;11.576;2023-07-13T18:02:38;5.27;;;2.97;;
489;SDS011;231;48.120;11.576;2023-07-13T18:05:23;5.03;;;3.00;;
489;SDS011;231;48.120;11.576;2023-07-13T18:07:51;2.70;;;2.50;;
489;SDS011;231;48.120;11.576;2023-07-13T18:10:19;5.07;;;2.73;;
489;SDS011;231;48.120;11.576;2023-07-13T18:12:48;2.90;;;2.63;;
489;SDS011;231;48.120;11.576;2023-07-13T18:15:16;2.67;;;2.47;;
489;SDS011;231;48.120;11.576;2023-07-13T18:17:47;3.70;;;2.87;;
489;SDS011;231;48.120;11.576;2023-07-13T18:20:17;2.57;;;2.37;;
489;SDS011;231;48.120;11.576;2023-07-13T18:22:46;2.87;;;2.67;;
489;SDS011;231;48.120;11.576;2023-07-13T18:25:14;5.20;;;3.80;;
489;SDS011;231;48.120;11.576;2023-07-13T18:27:44;3.30;;;3.10;;
489;SDS011;231;48.120;11.576;2023-07-13T18:30:13;2.33;;;2.17;;
489;SDS011;231;48.120;11.576;2023-07-13T18:32:41;5.60;;;3.30;;
489;SDS011;231;48.120;11.576;2023-07-13T18:35:15;4.27;;;3.00;;
489;SDS011;231;48.120;11.576;2023-07-13T18:37:45;4.07;;;2.87;;
489;SDS011;231;48.120;11.576;2023-07-13T18:40:13;3.83;;;3.40;;
489;SDS011;231;48.120;11.576;2023-07-13T18:42:42;8.87;;;3.20;;
489;SDS011;231;48.120;11.576;2023-07-13T18:45:10;4.80;;;3.07;;
489;SDS011;231;48.120;11.576;2023-07-13T18:47:39;3.87;;;3.53;;
489;SDS011;231;48.120;11.576;2023-07-13T18:50:12;2.80;;;2.53;;
489;SDS011;231;48.120;11.576;2023-07-13T18:52:43;5.17;;;3.77;;
489;SDS011;231;48.120;11.576;2023-07-13T18:55:14;2.93;;;2.73;;
489;SDS011;231;48.120;11.576;2023-07-13T18:57:42;3.80;;;3.70;;
489;SDS011;231;48.120;11.576;2023-07-13T19:00:10;3.80;;;3.60;;
489;SDS011;231;48.120;11.576;2023-07-13T19:02:38;7.30;;;3.63;;
489;SDS011;231;48.120;11.576;2023-07-13T19:05:12;4.10;;;3.30;;
489;SDS011;231;48.120;11.576;2023-07-13T19:07:43;5.73;;;3.67;;
489;SDS011;231;48.120;11.576;2023-07-13T19:10:14;3.60;;;3.43;;
489;SDS011;231;48.120;11.576;2023-07-13T19:12:44;3.43;;;3.30;;
489;SDS011;231;48.120;11.576;2023-07-13T19:15:19;5.90;;;3.40;;
489;SDS011;231;48.120;11.576;2023-07-13T19:17:48;3.03;;;2.83;;
489;SDS011;231;48.120;11.576;2023-07-13T19:20:18;2.80;;;2.60;;
489;SDS011;231;48.120;11.576;2023-07-13T19:22:52;4.00;;;3.43;;
489;SDS011;231;48.120;11.576;2023-07-13T19:25:22;2.50;;;2.30;;
489;SDS011;231;48.120;11.576;2023-07-13T19:27:58;3.50;;;2.83;;
489;SDS011;231;48.120;11.576;2023-07-13T19:30:42;3.10;;;2.90;;
489;SDS011;231;48.120;11.576;2023-07-13T19:33:09;3.10;;;2.90;;
489;SDS011;231;48.120;11.576;2023-07-13T19:35:43;3.50;;;3.30;;
489;SDS011;231;48.120;11.576;2023-07-13T19:38:11;6.50;;;3.20;;
489;SDS011;231;48.120;11.576;2023-07-13T19:40:39;3.57;;;2.67;;
489;SDS011;231;48.120;11.576;2023-07-13T19:43:08;4.97;;;3.40;;
489;SDS011;231;48.120;11.576;2023-07-13T19:45:37;4.97;;;2.77;;
489;SDS011;231;48.120;11.576;2023-07-13T19:48:05;4.10;;;2.87;;
489;SDS011;231;48.120;11.576;2023-07-13T19:50:32;4.27;;;3.63;;
489;SDS011;231;48.120;11.576;2023-07-13T19:53:01;3.57;;;3.37;;
489;SDS011;231;48.120;11.576;2023-07-13T19:55:28;2.73;;;2.60;;
489;SDS011;231;48.120;11.576;2023-07-13T19:57:56;3.43;;;3.20;;
489;SDS011;231;48.120;11.576;2023-07-13T20:00:23;3.47;;;3.27;;
489;SDS011;231;48.120;11.576;2023-07-13T20:02:52;5.70;;;3.00;;
489;SDS011;231;48.120;11.576;2023-07-13T20:05:20;3.30;;;3.10;;
489;SDS011;231;48.120;11.576;2023-07-13T20:07:49;3.10;;;2.53;;
489;SDS011;231;48.120;11.576;2023-07-13T20:10:22;3.10;;;2.90;;
489;SDS011;231;48.120;11.576;2023-07-13T20:12:52;3.30;;;3.10;;
489;SDS011;231;48.120;11.576;2023-07-13T20:15:20;3.00;;;2.70;;
489;SDS011;231;48.120;11.576;2023-07-13T20:17:49;3.53;;;3.33;;
489;SDS011;231;48.120;11.576;2023-07-13T20:20:20;3.57;;;3.37;;
489;SDS011;231;48.120;11.576;2023-07-13T20:22:50;3.73;;;3.53;;
489;SDS011;231;48.120;11.576;2023-07-13T20:25:19;6.33;;;3.37;;
489;SDS011;231;48.120;11.576;2023-07-13T20:47:32;3.67;;;3.47;;
489;SDS011;231;48.120;11.576;2023-07-13T20:53:59;3.17;;;2.97;;
489;SDS011;231;48.120;11.576;2023-07-13T21:56:19;3.67;;;3.47;;
489;SDS011;231;48.120;11.576;2023-07-13T22:36:12;4.17;;;3.93;;
489;SDS011;231;48.120;11.576;2023-07-13T22:39:26;3.80;;;3.60;;
489;SDS011;231;48.120;11.576;2023-07-13T22:41:58;3.80;;;3.50;;
489;SDS011;231;48.120;11.576;2023-07-13T22:44:44;3.70;;;3.50;;
489;SDS011;231;48.120;11.576;2023-07-13T22:54:17;3.90;;;3.70;;
489;SDS011;231;48.120;11.576;2023-07-13T22:56:51;3.80;;;3.60;;
489;SDS011;231;48.120;11.576;2023-07-13T22:59:40;3.70;;;3.50;;
489;SDS011;231;48.120;11.576;2023-07-13T23:02:16;3.90;;;3.60;;
489;SDS011;231;48.120;11.576;2023-07-13T23:04:52;3.87;;;3.67;;
489;SDS011;231;48.120;11.576;2023-07-13T23:07:22;8.60;;;4.27;;
489;SDS011;231;48.120;11.576;2023-07-13T23:09:54;3.73;;;3.53;;
489;SDS011;231;48.120;11.576;2023-07-13T23:12:24;3.77;;;3.57;;
489;SDS011;231;48.120;11.576;2023-07-13T23:14:55;5.23;;;3.80;;
489;SDS011;231;48.120;11.576;2023-07-13T23:17:29;4.30;;;4.00;;
489;SDS011;231;48.120;11.576;2023-07-13T23:20:17;3.60;;;3.40;;
489;SDS011;231;48.120;11.576;2023-07-13T23:23:00;4.07;;;3.87;;
489;SDS011;231;48.120;11.576;2023-07-13T23:25:30;4.03;;;3.83;;
489;SDS011;231;48.120;11.576;2023-07-13T23:28:00;4.50;;;4.20;;
489;SDS011;231;48.120;11.576;2023-07-13T23:33:35;4.60;;;4.30;;
489;SDS011;231;48.120;11.576;2023-07-13T23:36:05;4.63;;;4.13;;
489;SDS011;231;48.120;11.576;2023-07-13T23:38:36;6.17;;;4.53;;
489;SDS011;231;48.120;11.576;2023-07-13T23:41:08;5.10;;;4.80;;
489;SDS011;231;48.120;11.576;2023-07-13T23:43:38;4.77;;;4.47;;
489;SDS011;231;48.120;11.576;2023-07-13T23:46:09;5.70;;;4.93;;
489;SDS011;231;48.120;11.576;2023-07-13T23:48:57;4.57;;;4.27;;
489;SDS011;231;48.120;11.576;2023-07-13T23:51:26;4.10;;;3.87;;
489;SDS011;231;48.120;11.576;2023-07-13T23:53:57;4.47;;;4.17;;
489;SDS011;231;48.120;11.576;2023-07-13T23:56:30;4.13;;;3.90;;
489;SDS011;231;48.120;11.576;2023-07-13T23:59:00;4.53;;;4.23;;
